createdAt,value
2023-07-21T01:50:27.164Z,2.97
2023-07-21T02:17:01.076Z,2.90
2023-07-21T02:23:47.972Z,3.00
2023-07-21T06:20:07.077Z,2.47
2023-07-21T06:26:18.141Z,2.45
2023-07-21T06:32:54.719Z,2.20
2023-07-21T06:39:48.014Z,2.55
2023-07-21T06:53:34.612Z,2.40
2023-07-21T07:00:03.540Z,2.30
2023-07-21T07:14:48.418Z,2.35
2023-07-21T07:50:15.134Z,2.38
2023-07-21T11:23:33.513Z,1.70
2023-07-21T11:30:41.464Z,2.00
2023-07-21T11:37:31.505Z,1.58
2023-07-21T12:06:04.574Z,1.92
2023-07-21T12:12:48.327Z,1.70
2023-07-21T12:19:51.320Z,1.90
2023-07-21T12:25:54.960Z,1.98
2023-07-21T12:31:58.095Z,1.73
2023-07-21T12:38:31.206Z,1.88
2023-07-21T12:45:09.718Z,1.75
2023-07-21T12:58:14.834Z,2.00
2023-07-21T13:04:39.925Z,1.30
2023-07-21T13:10:44.137Z,1.92
2023-07-21T13:17:21.302Z,2.20
2023-07-21T13:23:58.369Z,1.77
2023-07-21T13:31:08.243Z,1.77
2023-07-21T13:37:28.460Z,1.48
2023-07-21T13:43:32.293Z,1.20
2023-07-21T13:56:05.471Z,1.63
2023-07-21T14:02:18.891Z,1.58
2023-07-21T14:23:06.646Z,1.75
2023-07-21T14:30:38.170Z,1.48
2023-07-21T14:44:04.233Z,1.55
2023-07-21T14:50:36.909Z,1.95
2023-07-21T14:56:49.360Z,1.70
2023-07-21T15:03:47.282Z,1.90
2023-07-21T15:10:30.883Z,1.90
2023-07-21T15:23:40.630Z,1.33
2023-07-21T15:29:47.638Z,1.90
2023-07-21T15:36:01.856Z,1.65
2023-07-21T15:42:26.840Z,1.42
2023-07-21T15:48:40.552Z,1.42
2023-07-21T15:54:55.964Z,1.77
2023-07-21T16:01:29.826Z,1.83
2023-07-21T16:07:37.670Z,1.85
2023-07-21T16:20:30.371Z,1.67
2023-07-21T16:27:39.650Z,1.80
2023-07-21T16:33:52.931Z,2.80
2023-07-21T16:41:38.833Z,2.30
2023-07-21T16:47:31.146Z,2.65
2023-07-21T17:00:34.370Z,2.40
2023-07-21T17:21:38.741Z,1.75
2023-07-21T17:27:57.513Z,2.08
2023-07-21T17:34:58.914Z,2.38
2023-07-21T17:41:12.416Z,2.67
2023-07-21T17:48:14.871Z,1.92
2023-07-21T17:54:29.001Z,2.45
2023-07-21T18:01:08.287Z,2.00
2023-07-21T18:07:28.369Z,2.75
2023-07-21T18:26:19.908Z,2.40
2023-07-21T18:32:24.292Z,2.85
2023-07-21T18:38:54.683Z,12.77
2023-07-21T18:51:18.684Z,2.58
2023-07-21T18:57:31.268Z,4.93
2023-07-21T19:03:39.511Z,5.20
2023-07-21T19:09:45.244Z,4.78
2023-07-21T19:15:50.748Z,10.23
2023-07-21T19:21:56.226Z,22.40
2023-07-21T19:28:07.718Z,22.98
2023-07-21T19:34:15.502Z,6.70
2023-07-21T19:40:18.773Z,5.97
2023-07-21T19:46:40.366Z,5.38
2023-07-21T19:52:56.918Z,6.28
2023-07-21T19:59:08.982Z,5.32
2023-07-21T20:05:16.200Z,4.13
2023-07-21T20:11:18.218Z,6.18
2023-07-21T20:17:27.524Z,4.55
2023-07-21T20:23:33.297Z,8.27
2023-07-21T20:29:40.114Z,4.07
2023-07-21T20:35:46.359Z,3.50
2023-07-21T20:41:50.901Z,3.30
2023-07-21T20:48:01.409Z,3.30
2023-07-21T20:54:31.050Z,2.70
2023-07-21T21:00:49.914Z,3.17
2023-07-21T21:07:03.963Z,2.60
2023-07-21T21:13:38.958Z,2.10
2023-07-21T21:19:52.202Z,3.28
2023-07-21T21:26:30.728Z,2.53
2023-07-21T21:32:39.268Z,2.67
2023-07-21T21:38:45.349Z,2.63
2023-07-21T21:45:06.870Z,3.40
2023-07-21T21:51:29.881Z,2.92
2023-07-21T21:57:49.185Z,2.92
2023-07-21T22:04:08.873Z,3.38
2023-07-21T22:10:18.845Z,2.28
2023-07-21T22:16:29.621Z,2.75
2023-07-21T22:22:48.217Z,3.03
2023-07-21T22:28:59.088Z,3.47
2023-07-21T22:35:01.570Z,3.10
2023-07-21T22:41:27.129Z,2.80
2023-07-21T22:47:45.505Z,2.00
2023-07-21T23:08:16.686Z,2.58
2023-07-21T23:14:52.378Z,2.42
2023-07-21T23:56:03.512Z,2.40
